Список аэропортов
Фактическая погода:

23 апреля, 12:20
Температура: +16°C (+15.7*)
Ветер: юго-западный 3 м/с
Давление: *764 мм
неб. облачность
900 м
Время (МСК)Темп. СВетерВлажностьДавлениеОблачностьОсадки
09:00+12СЗ, 3 м/с51%1016 гПаясно
10:00+14СЗ, 4 м/с41%1017 гПаясно
11:00+15СЗ, 4 м/с38%1017 гПаясно
12:00+16СЗ, 4 м/с35%1018 гПаясно
13:00+18З, 4 м/с34%1018 гПаясно
14:00+18З, 3 м/с32%1017 гПаясно
15:00+19З, 3 м/с32%1017 гПаясно
16:00+19З, 3 м/с36%1017 гПамалооблачно
17:00+19ЮЗ, 4 м/с38%1017 гПамалооблачно
18:00+17ЮЗ, 7 м/с45%1017 гПамалооблачно
19:00+16ЮЗ, 7 м/с47%1017 гПаясно
20:00+14ЮЗ, 6 м/с58%1017 гПаясно
21:00+14ЮЗ, 5 м/с68%1018 гПаясно
22:00+14ЮЗ, 5 м/с75%1018 гПаясно
23:00+14З, 5 м/с57%1018 гПаясно
24 апреля
00:00+14З, 7 м/с59%1018 гПаясно
01:00+13З, 5 м/с64%1018 гПаясно
02:00+13З, 4 м/с65%1018 гПаясно
03:00+13З, 4 м/с61%1018 гПаясно
04:00+13СЗ, 4 м/с54%1018 гПаясно
05:00+13СЗ, 4 м/с49%1018 гПаясно
06:00+13СЗ, 4 м/с47%1019 гПаясно
07:00+13СЗ, 4 м/с50%1019 гПаясно
08:00+14С, 5 м/с51%1020 гПаясно
09:00+16С, 6 м/с50%1021 гПаясно
10:00+17С, 5 м/с45%1021 гПаясно
11:00+18СВ, 5 м/с43%1022 гПаясно
12:00+19СВ, 5 м/с44%1022 гПамалооблачно
13:00+19СВ, 6 м/с42%1023 гПас прояснениями
14:00+18СВ, 7 м/с38%1023 гПас прояснениями
15:00+18СВ, 6 м/с39%1022 гПас прояснениями
16:00+18СВ, 5 м/с40%1022 гПамалооблачно
17:00+17СВ, 5 м/с41%1022 гПамалооблачно
18:00+17В, 4 м/с43%1022 гПаясно
19:00+16В, 3 м/с50%1022 гПаясно
20:00+15В, 2 м/с60%1023 гПамалооблачно
21:00+14ЮВ, 1 м/с68%1023 гПамалооблачно
22:00+13ЮВ, 1 м/с74%1023 гПас прояснениями
23:00+13Ю, 1 м/с78%1023 гПас прояснениями
25 апреля
00:00+12Ю, 1 м/с81%1023 гПас прояснениями
01:00+11Ю, 1 м/с87%1023 гПамалооблачно
02:00+10Штиль 92%1023 гПаясно
03:00+9Штиль 94%1022 гПамалооблачно
04:00+9Штиль 95%1022 гПаоблачно
05:00+9З, 1 м/с95%1022 гПас прояснениями
06:00+8СЗ, 1 м/с94%1022 гПас прояснениями
07:00+9З, 2 м/с93%1022 гПаоблачно
08:00+11З, 1 м/с84%1022 гПаоблачно
09:00+15ЮВ, 1 м/с69%1022 гПаоблачно